Time;durP1;ratioP1;P1;durP2;ratioP2;P2;SDS_P1;SDS_P2;PMS_P1;PMS_P2;Temp;Humidity;BMP_temperature;BMP_pressure;BME280_temperature;BME280_humidity;BME280_pressure;Samples;Min_cycle;Max_cycle;Signal;HPM_P1;HPM_P2
2021/10/18 00:00:32;;;;;;;12.70;6.40;;;9.90;99.90;;;;;;4158907;28;20523;-79
2021/10/18 00:02:34;;;;;;;14.13;6.90;;;9.90;99.90;;;;;;4171404;28;20211;-79
2021/10/18 00:04:35;;;;;;;9.83;6.23;;;9.90;99.90;;;;;;4165480;28;20207;-79
2021/10/18 00:06:37;;;;;;;11.63;6.30;;;9.90;99.90;;;;;;4166003;28;20625;-79
2021/10/18 00:08:39;;;;;;;11.93;6.80;;;9.90;99.90;;;;;;4153099;28;20254;-79
2021/10/18 00:10:41;;;;;;;11.07;6.57;;;9.90;99.90;;;;;;4148946;28;20208;-79
2021/10/18 00:12:44;;;;;;;12.63;7.07;;;9.90;99.90;;;;;;4149417;28;20216;-79
2021/10/18 00:14:46;;;;;;;14.20;6.90;;;9.90;99.90;;;;;;4162250;28;20242;-79
2021/10/18 00:16:48;;;;;;;14.73;7.10;;;9.90;99.90;;;;;;4149415;28;20217;-79
2021/10/18 00:18:50;;;;;;;11.70;7.07;;;9.90;99.90;;;;;;4147353;28;20771;-79
2021/10/18 00:20:52;;;;;;;11.93;6.20;;;9.90;99.90;;;;;;4157764;28;20735;-79
2021/10/18 00:22:54;;;;;;;10.87;6.63;;;9.90;99.90;;;;;;4164590;28;20731;-79
2021/10/18 00:24:56;;;;;;;14.13;6.73;;;9.80;99.90;;;;;;4156457;28;20613;-79
2021/10/18 00:26:58;;;;;;;10.67;6.20;;;9.90;99.90;;;;;;4175953;28;20214;-79
2021/10/18 00:29:01;;;;;;;12.37;6.37;;;9.90;99.90;;;;;;4181299;28;20495;-79
2021/10/18 00:31:03;;;;;;;14.30;6.30;;;9.90;99.90;;;;;;4180241;28;20260;-79
2021/10/18 00:33:04;;;;;;;10.40;6.63;;;9.90;99.90;;;;;;4156792;28;20215;-79
2021/10/18 00:35:07;;;;;;;13.20;6.17;;;9.90;99.90;;;;;;4163063;28;20226;-79
2021/10/18 00:37:09;;;;;;;11.47;6.43;;;9.90;99.90;;;;;;4181143;28;20850;-79
2021/10/18 00:39:11;;;;;;;11.00;6.37;;;9.90;99.90;;;;;;4169631;28;20288;-79
2021/10/18 00:41:13;;;;;;;11.73;6.13;;;9.80;99.90;;;;;;4161660;28;21025;-79
2021/10/18 00:43:14;;;;;;;11.87;6.20;;;9.80;99.90;;;;;;4162907;28;20265;-79
2021/10/18 00:45:18;;;;;;;11.17;6.53;;;9.80;99.90;;;;;;4167743;28;20776;-79
2021/10/18 00:47:22;;;;;;;13.53;6.40;;;9.80;99.90;;;;;;4171145;28;20221;-79
2021/10/18 00:49:23;;;;;;;12.43;6.80;;;9.80;99.90;;;;;;4157033;28;20208;-79
2021/10/18 00:51:27;;;;;;;12.67;6.50;;;9.80;99.90;;;;;;4171581;28;20214;-79
2021/10/18 00:53:29;;;;;;;11.33;6.20;;;9.80;99.90;;;;;;4180875;28;20590;-79
2021/10/18 00:55:31;;;;;;;15.03;6.63;;;9.80;99.90;;;;;;4169712;28;20234;-79
2021/10/18 00:57:33;;;;;;;9.53;6.33;;;9.80;99.90;;;;;;4159177;28;20237;-79
2021/10/18 00:59:36;;;;;;;9.93;6.07;;;9.80;99.90;;;;;;4157673;28;20215;-79
2021/10/18 01:01:39;;;;;;;10.60;6.10;;;9.80;99.90;;;;;;4167575;28;20516;-79
2021/10/18 01:03:42;;;;;;;10.20;6.07;;;9.80;99.90;;;;;;4164181;28;20207;-78
2021/10/18 01:05:43;;;;;;;11.50;6.37;;;9.80;99.90;;;;;;4163001;28;20231;-78
2021/10/18 01:07:46;;;;;;;10.37;6.93;;;9.80;99.90;;;;;;4159989;28;20470;-78
2021/10/18 01:09:48;;;;;;;12.30;5.93;;;9.80;99.90;;;;;;4162952;28;20450;-79
2021/10/18 01:11:50;;;;;;;10.60;6.07;;;9.70;99.90;;;;;;4160461;28;20218;-78
2021/10/18 01:13:51;;;;;;;13.57;6.20;;;9.70;99.90;;;;;;4154144;28;20516;-79
2021/10/18 01:15:54;;;;;;;11.70;6.33;;;9.70;99.90;;;;;;4161960;28;20232;-78
2021/10/18 01:17:57;;;;;;;9.90;6.17;;;9.70;99.90;;;;;;4163859;28;20233;-79
2021/10/18 01:19:58;;;;;;;10.07;6.03;;;9.70;99.90;;;;;;4163805;28;20214;-78
2021/10/18 01:22:03;;;;;;;11.30;6.30;;;9.70;99.90;;;;;;4164193;28;20219;-79
2021/10/18 01:24:05;;;;;;;11.27;6.63;;;9.70;99.90;;;;;;4157900;28;20533;-78
2021/10/18 01:26:06;;;;;;;10.87;6.30;;;9.70;99.90;;;;;;4146736;28;20235;-79
2021/10/18 01:28:08;;;;;;;11.23;6.97;;;9.60;99.90;;;;;;4158610;28;20477;-78
2021/10/18 01:30:10;;;;;;;10.40;6.27;;;9.60;99.90;;;;;;4162802;28;20461;-79
2021/10/18 01:32:12;;;;;;;11.90;6.57;;;9.60;99.90;;;;;;4160488;28;20211;-78
2021/10/18 01:34:14;;;;;;;16.30;6.90;;;9.60;99.90;;;;;;4163647;28;21005;-79
2021/10/18 01:36:16;;;;;;;12.00;6.33;;;9.60;99.90;;;;;;4163246;28;20474;-79
2021/10/18 01:38:19;;;;;;;13.83;7.20;;;9.60;99.90;;;;;;4163682;28;21066;-79
2021/10/18 01:40:22;;;;;;;10.97;6.90;;;9.60;99.90;;;;;;4154573;28;20207;-79
2021/10/18 01:42:24;;;;;;;18.30;7.17;;;9.50;99.90;;;;;;4147591;28;20486;-79
2021/10/18 01:44:26;;;;;;;13.43;7.20;;;9.50;99.90;;;;;;4164075;28;20947;-79
2021/10/18 01:46:28;;;;;;;10.90;6.40;;;9.50;99.90;;;;;;4177822;22;20501;-77
2021/10/18 01:48:30;;;;;;;11.17;6.40;;;9.40;99.90;;;;;;4162937;28;20729;-77
2021/10/18 01:50:32;;;;;;;9.93;6.67;;;9.50;99.90;;;;;;4159484;28;20218;-77
2021/10/18 01:52:33;;;;;;;10.47;6.70;;;9.60;99.90;;;;;;4163567;28;20489;-77
2021/10/18 01:54:36;;;;;;;11.80;6.83;;;9.50;99.90;;;;;;4164005;28;20207;-77
2021/10/18 01:56:38;;;;;;;11.60;6.90;;;9.60;99.90;;;;;;4181977;28;20479;-77
2021/10/18 01:58:40;;;;;;;11.63;7.00;;;9.60;99.90;;;;;;4181026;28;20488;-76
2021/10/18 02:00:42;;;;;;;12.43;6.77;;;9.60;99.90;;;;;;4181659;28;20895;-76
2021/10/18 02:02:46;;;;;;;15.47;8.43;;;9.60;99.90;;;;;;4182897;28;20457;-76
2021/10/18 02:04:47;;;;;;;12.17;6.97;;;9.50;99.90;;;;;;4182768;28;20825;-76
2021/10/18 02:06:49;;;;;;;12.07;7.90;;;9.50;99.90;;;;;;4182760;28;20879;-76
2021/10/18 02:08:51;;;;;;;15.50;6.90;;;9.60;99.90;;;;;;4176496;28;20203;-76
2021/10/18 02:10:54;;;;;;;12.60;7.20;;;9.50;99.90;;;;;;4166694;28;20461;-76
2021/10/18 02:12:56;;;;;;;12.17;7.40;;;9.50;99.90;;;;;;4167812;28;20202;-76
2021/10/18 02:14:57;;;;;;;14.13;7.77;;;9.50;99.90;;;;;;4180705;28;20499;-77
2021/10/18 02:16:59;;;;;;;13.67;7.10;;;9.50;99.90;;;;;;4174224;28;20268;-76
2021/10/18 02:19:01;;;;;;;12.97;7.23;;;9.50;99.90;;;;;;4180417;28;20237;-76
2021/10/18 02:21:02;;;;;;;16.27;7.40;;;9.50;99.90;;;;;;4178151;28;20457;-76
2021/10/18 02:23:04;;;;;;;13.53;7.30;;;9.50;99.90;;;;;;4181805;28;20267;-76
2021/10/18 02:25:08;;;;;;;13.60;7.60;;;9.50;99.90;;;;;;4182310;28;20773;-76
2021/10/18 02:27:11;;;;;;;14.03;7.37;;;9.50;99.90;;;;;;4181052;28;20214;-76
2021/10/18 02:29:13;;;;;;;11.80;7.03;;;9.50;99.90;;;;;;4180254;28;20519;-76
2021/10/18 02:31:15;;;;;;;13.17;7.20;;;9.50;99.90;;;;;;4173009;28;20207;-76
2021/10/18 02:33:17;;;;;;;12.90;7.20;;;9.50;99.90;;;;;;4181709;28;20453;-78
2021/10/18 02:35:19;;;;;;;12.43;6.90;;;9.50;99.90;;;;;;4182686;28;20265;-76
2021/10/18 02:37:20;;;;;;;13.27;6.87;;;9.50;99.90;;;;;;4182626;28;20209;-77
2021/10/18 02:39:22;;;;;;;15.30;7.47;;;9.50;99.90;;;;;;4181946;28;20728;-77
2021/10/18 02:41:24;;;;;;;14.30;6.90;;;9.50;99.90;;;;;;4167276;28;20473;-77
2021/10/18 02:43:27;;;;;;;12.80;6.67;;;9.50;99.90;;;;;;4166045;28;20461;-76
2021/10/18 02:45:29;;;;;;;11.20;7.07;;;9.50;99.90;;;;;;4177571;28;20296;-78
2021/10/18 02:47:31;;;;;;;13.33;6.60;;;9.50;99.90;;;;;;4181510;28;20676;-77
2021/10/18 02:49:32;;;;;;;11.23;6.20;;;9.50;99.90;;;;;;4180741;28;20468;-78
2021/10/18 02:51:34;;;;;;;14.50;7.10;;;9.50;99.90;;;;;;4182466;28;20210;-77
2021/10/18 02:53:36;;;;;;;12.93;7.10;;;9.50;99.90;;;;;;4182465;28;20265;-77
2021/10/18 02:55:37;;;;;;;11.40;6.80;;;9.50;99.90;;;;;;4182150;28;20623;-77
2021/10/18 02:57:39;;;;;;;14.23;6.77;;;9.50;99.90;;;;;;4179596;28;20481;-77
2021/10/18 02:59:42;;;;;;;11.67;6.80;;;9.50;99.90;;;;;;4180039;28;20542;-77
2021/10/18 03:01:44;;;;;;;10.50;7.00;;;9.50;99.90;;;;;;4182317;28;20214;-77
2021/10/18 03:03:46;;;;;;;12.27;7.00;;;9.50;99.90;;;;;;4182306;28;20769;-77
2021/10/18 03:05:49;;;;;;;13.67;7.50;;;9.50;99.90;;;;;;4181416;28;20899;-77
2021/10/18 03:07:52;;;;;;;12.23;6.53;;;9.50;99.90;;;;;;4179912;28;20463;-77
2021/10/18 03:09:53;;;;;;;13.03;7.20;;;9.50;99.90;;;;;;4182358;28;20468;-77
2021/10/18 03:11:55;;;;;;;14.37;7.13;;;9.50;99.90;;;;;;4181970;28;20214;-77
2021/10/18 03:13:57;;;;;;;13.30;7.20;;;9.50;99.90;;;;;;4182168;28;20206;-77
2021/10/18 03:16:00;;;;;;;15.43;7.57;;;9.50;99.90;;;;;;4175703;28;20234;-78
2021/10/18 03:18:02;;;;;;;13.40;7.60;;;9.50;99.90;;;;;;4182239;28;20207;-77
2021/10/18 03:20:04;;;;;;;11.77;7.50;;;9.50;99.90;;;;;;4180726;28;20304;-77
2021/10/18 03:22:06;;;;;;;12.37;6.83;;;9.40;99.90;;;;;;4180635;28;20206;-77
2021/10/18 03:24:08;;;;;;;11.00;7.13;;;9.40;99.90;;;;;;4172259;28;20234;-77
2021/10/18 03:26:09;;;;;;;11.40;7.10;;;9.40;99.90;;;;;;4176199;28;20546;-77
2021/10/18 03:28:11;;;;;;;13.20;7.87;;;9.40;99.90;;;;;;4181891;28;20261;-77
2021/10/18 03:30:14;;;;;;;15.47;8.03;;;9.40;99.90;;;;;;4178712;28;20918;-77
2021/10/18 03:32:17;;;;;;;17.00;7.80;;;9.40;99.90;;;;;;4174820;28;20210;-77
2021/10/18 03:34:19;;;;;;;12.70;7.20;;;9.40;99.90;;;;;;4181646;28;20264;-77
2021/10/18 03:36:20;;;;;;;12.70;7.20;;;9.40;99.90;;;;;;4181084;28;20488;-78
2021/10/18 03:38:22;;;;;;;12.43;7.57;;;9.40;99.90;;;;;;4181249;28;20211;-77
2021/10/18 03:40:24;;;;;;;13.73;7.90;;;9.40;99.90;;;;;;4170301;28;20482;-77
2021/10/18 03:42:26;;;;;;;10.73;7.13;;;9.40;99.90;;;;;;4165874;28;20478;-77
2021/10/18 03:44:28;;;;;;;11.30;6.37;;;9.40;99.90;;;;;;4181432;28;20874;-77
2021/10/18 03:46:29;;;;;;;11.67;6.93;;;9.30;99.90;;;;;;4180399;28;20315;-77
2021/10/18 03:48:33;;;;;;;13.07;6.87;;;9.40;99.90;;;;;;4180984;28;20457;-77
2021/10/18 03:50:34;;;;;;;13.07;7.30;;;9.40;99.90;;;;;;4169844;28;20519;-77
2021/10/18 03:52:36;;;;;;;12.23;7.23;;;9.40;99.90;;;;;;4164744;28;20448;-77
2021/10/18 03:54:38;;;;;;;12.33;7.30;;;9.30;99.90;;;;;;4165123;28;20470;-77
2021/10/18 03:56:40;;;;;;;12.00;6.87;;;9.30;99.90;;;;;;4171104;28;20473;-77
2021/10/18 03:58:41;;;;;;;12.53;7.03;;;9.30;99.90;;;;;;4180432;28;20461;-78
2021/10/18 04:00:43;;;;;;;13.07;7.77;;;9.30;99.90;;;;;;4179658;28;20469;-78
2021/10/18 04:02:45;;;;;;;12.67;7.07;;;9.30;99.90;;;;;;4172935;28;20815;-77
2021/10/18 04:04:48;;;;;;;12.50;7.83;;;9.30;99.90;;;;;;4180091;28;20984;-76
2021/10/18 04:06:50;;;;;;;12.60;6.80;;;9.30;99.90;;;;;;4169460;28;20611;-77
2021/10/18 04:08:53;;;;;;;14.30;7.10;;;9.30;99.90;;;;;;4177853;28;20978;-77
2021/10/18 04:10:55;;;;;;;13.97;7.77;;;9.30;99.90;;;;;;4175624;28;20475;-76
2021/10/18 04:12:57;;;;;;;13.20;7.27;;;9.30;99.90;;;;;;4178121;28;20507;-77
2021/10/18 04:14:59;;;;;;;13.30;7.00;;;9.30;99.90;;;;;;4171222;28;20474;-76
2021/10/18 04:17:00;;;;;;;13.73;7.10;;;9.30;99.90;;;;;;4164790;28;20805;-76
2021/10/18 04:19:02;;;;;;;10.33;7.07;;;9.30;99.90;;;;;;4165352;28;20488;-76
2021/10/18 04:21:06;;;;;;;11.83;7.07;;;9.30;99.90;;;;;;4173705;28;20671;-76
2021/10/18 04:23:07;;;;;;;10.80;6.57;;;9.30;99.90;;;;;;4174069;28;20488;-76
2021/10/18 04:25:09;;;;;;;13.97;7.00;;;9.30;99.90;;;;;;4179161;28;20497;-76
2021/10/18 04:27:11;;;;;;;13.47;7.57;;;9.30;99.90;;;;;;4178875;28;20464;-76
2021/10/18 04:29:13;;;;;;;10.60;6.50;;;9.30;99.90;;;;;;4176849;28;20829;-76
2021/10/18 04:31:14;;;;;;;12.43;6.83;;;9.30;99.90;;;;;;4179478;28;20460;-76
2021/10/18 04:33:16;;;;;;;11.93;6.30;;;9.20;99.90;;;;;;4167715;28;20672;-76
2021/10/18 04:35:18;;;;;;;15.23;6.37;;;9.30;99.90;;;;;;4180347;28;20229;-77
2021/10/18 04:37:21;;;;;;;11.20;6.27;;;9.20;99.90;;;;;;4179787;28;20831;-76
2021/10/18 04:39:23;;;;;;;11.43;6.10;;;9.20;99.90;;;;;;4179632;28;20515;-79
2021/10/18 04:41:25;;;;;;;14.70;6.83;;;9.20;99.90;;;;;;4172176;28;20215;-78
2021/10/18 04:43:27;;;;;;;12.93;6.63;;;9.20;99.90;;;;;;4165388;28;20453;-77
2021/10/18 04:45:28;;;;;;;10.27;6.70;;;9.20;99.90;;;;;;4180016;28;20578;-78
2021/10/18 04:47:30;;;;;;;12.83;7.00;;;9.20;99.90;;;;;;4180705;28;20264;-76
2021/10/18 04:49:32;;;;;;;14.47;6.20;;;9.20;99.90;;;;;;4175826;28;20461;-76
2021/10/18 04:51:34;;;;;;;10.63;6.30;;;9.10;99.90;;;;;;4177432;28;20469;-76
2021/10/18 04:53:37;;;;;;;11.43;6.97;;;9.10;99.90;;;;;;4179732;28;20514;-76
2021/10/18 04:55:39;;;;;;;11.53;6.63;;;9.10;99.90;;;;;;4179797;28;20226;-79
2021/10/18 04:57:54;;;;;;;9.90;6.33;;;9.10;99.90;;;;;;4176506;28;20454;-78
2021/10/18 04:59:56;;;;;;;17.13;7.00;;;9.10;99.90;;;;;;4175785;28;20495;-76
2021/10/18 05:01:58;;;;;;;15.53;6.87;;;9.10;99.90;;;;;;4175137;28;20465;-78
2021/10/18 05:04:00;;;;;;;11.90;6.57;;;9.10;99.90;;;;;;4173383;28;20461;-77
2021/10/18 05:06:03;;;;;;;10.67;6.50;;;9.10;99.90;;;;;;4179139;28;20826;-77
2021/10/18 05:08:07;;;;;;;13.13;7.17;;;9.10;99.90;;;;;;4175163;28;20476;-79
2021/10/18 05:10:14;;;;;;;10.93;6.40;;;9.10;99.90;;;;;;4177193;28;20449;-76
2021/10/18 05:12:16;;;;;;;11.57;6.53;;;9.10;99.90;;;;;;4179946;28;20469;-76
2021/10/18 05:14:17;;;;;;;14.60;6.40;;;9.00;99.90;;;;;;4174323;28;20460;-76
2021/10/18 05:16:19;;;;;;;12.33;6.97;;;9.00;99.90;;;;;;4173163;28;20988;-77
2021/10/18 05:18:21;;;;;;;11.77;6.07;;;9.00;99.90;;;;;;4176445;28;20530;-76
2021/10/18 05:20:23;;;;;;;12.50;6.47;;;9.00;99.90;;;;;;4174876;28;20485;-77
2021/10/18 05:22:25;;;;;;;9.87;6.63;;;9.00;99.90;;;;;;4175570;28;20507;-78
2021/10/18 05:24:27;;;;;;;11.40;6.83;;;9.00;99.90;;;;;;4172217;28;20500;-77
2021/10/18 05:26:30;;;;;;;11.73;7.00;;;9.00;99.90;;;;;;4174483;28;20492;-78
2021/10/18 05:28:32;;;;;;;11.23;6.17;;;9.00;99.90;;;;;;4176783;28;20965;-79
2021/10/18 05:30:36;;;;;;;10.57;6.23;;;9.00;99.90;;;;;;4180267;28;20669;-79
2021/10/18 05:32:38;;;;;;;11.00;5.80;;;9.00;99.90;;;;;;4178175;28;20840;-80
2021/10/18 05:34:40;;;;;;;10.97;5.77;;;8.90;99.90;;;;;;4182077;28;20445;-79
2021/10/18 05:36:41;;;;;;;10.73;5.83;;;8.90;99.90;;;;;;4177204;28;20503;-78
2021/10/18 05:38:43;;;;;;;16.20;7.03;;;8.90;99.90;;;;;;4179877;28;20449;-78
2021/10/18 05:40:45;;;;;;;9.53;6.07;;;8.90;99.90;;;;;;4180019;28;20501;-80
2021/10/18 05:42:48;;;;;;;10.40;5.93;;;8.90;99.90;;;;;;4174335;28;20501;-79
2021/10/18 05:44:49;;;;;;;13.13;6.30;;;8.90;99.90;;;;;;4178146;28;20973;-79
2021/10/18 05:46:51;;;;;;;9.73;5.90;;;8.90;99.90;;;;;;4170930;28;20542;-80
2021/10/18 05:48:53;;;;;;;10.93;6.00;;;8.90;99.90;;;;;;4180300;28;20456;-80
2021/10/18 05:50:55;;;;;;;12.70;6.17;;;8.90;99.90;;;;;;4179844;28;20464;-79
2021/10/18 05:52:57;;;;;;;10.73;6.40;;;8.90;99.90;;;;;;4179489;28;20953;-80
2021/10/18 05:54:58;;;;;;;10.17;5.87;;;8.80;99.90;;;;;;4171133;28;20520;-80
2021/10/18 05:57:00;;;;;;;11.57;6.37;;;8.80;99.90;;;;;;4175478;28;20686;-79
2021/10/18 05:59:03;;;;;;;12.73;6.50;;;8.80;99.90;;;;;;4170173;28;20874;-80
2021/10/18 06:01:05;;;;;;;10.97;5.60;;;8.80;99.90;;;;;;4169493;28;20497;-79
2021/10/18 06:03:07;;;;;;;8.80;5.57;;;8.80;99.90;;;;;;4178093;28;20511;-79
2021/10/18 06:05:09;;;;;;;11.50;5.60;;;8.80;99.90;;;;;;4174766;28;20527;-80
2021/10/18 06:07:11;;;;;;;10.60;5.97;;;8.80;99.90;;;;;;4178465;28;20510;-80
2021/10/18 06:09:14;;;;;;;12.43;5.93;;;8.80;99.90;;;;;;4178585;28;20456;-80
2021/10/18 06:11:16;;;;;;;10.93;6.07;;;8.80;99.90;;;;;;4167468;28;20969;-78
2021/10/18 06:13:18;;;;;;;10.80;5.97;;;8.80;99.90;;;;;;4173055;28;20460;-79
2021/10/18 06:15:21;;;;;;;10.23;6.03;;;8.80;99.90;;;;;;4172064;28;20500;-79
2021/10/18 06:17:23;;;;;;;15.83;8.43;;;8.80;99.90;;;;;;4172415;28;20466;-80
2021/10/18 06:19:24;;;;;;;16.17;8.00;;;8.70;99.90;;;;;;4175777;28;20480;-79
2021/10/18 06:21:26;;;;;;;15.70;7.70;;;8.70;99.90;;;;;;4173366;28;20462;-79
2021/10/18 06:23:28;;;;;;;13.13;6.10;;;8.70;99.90;;;;;;4178855;28;20460;-79
2021/10/18 06:25:30;;;;;;;12.27;6.30;;;8.70;99.90;;;;;;4178489;28;20552;-79
2021/10/18 06:27:32;;;;;;;10.27;5.87;;;8.70;99.90;;;;;;4175536;28;20441;-79
2021/10/18 06:29:35;;;;;;;9.97;5.90;;;8.70;99.90;;;;;;4171719;28;20495;-80
2021/10/18 06:31:38;;;;;;;9.43;5.53;;;8.60;99.90;;;;;;4174011;28;20544;-79
2021/10/18 06:33:42;;;;;;;8.77;5.97;;;8.60;99.90;;;;;;4177266;28;20824;-79
2021/10/18 06:35:44;;;;;;;10.60;5.67;;;8.60;99.90;;;;;;4177402;28;20566;-79
2021/10/18 06:37:46;;;;;;;10.07;5.50;;;8.60;99.90;;;;;;4171384;28;20499;-79
2021/10/18 06:39:47;;;;;;;15.97;6.43;;;8.60;99.90;;;;;;4172760;28;20595;-80
2021/10/18 06:41:49;;;;;;;10.97;5.43;;;8.60;99.90;;;;;;4171370;28;20967;-79
2021/10/18 06:43:51;;;;;;;11.33;6.40;;;8.50;99.90;;;;;;4173468;28;20460;-79
2021/10/18 06:45:53;;;;;;;11.33;5.60;;;8.50;99.90;;;;;;4176555;28;20572;-79
2021/10/18 06:47:56;;;;;;;8.80;5.20;;;8.50;99.90;;;;;;4176854;28;20456;-79
2021/10/18 06:49:58;;;;;;;9.77;5.23;;;8.50;99.90;;;;;;4174998;28;20470;-79
2021/10/18 06:52:01;;;;;;;8.43;5.70;;;8.50;99.90;;;;;;4178204;28;20476;-80
2021/10/18 06:54:04;;;;;;;10.60;5.87;;;8.40;99.90;;;;;;4178334;28;20464;-79
2021/10/18 06:56:07;;;;;;;10.57;5.60;;;8.40;99.90;;;;;;4177128;28;20516;-79
2021/10/18 06:58:09;;;;;;;9.70;6.07;;;8.40;99.90;;;;;;4169687;28;20522;-79
2021/10/18 07:00:11;;;;;;;12.33;6.37;;;8.40;99.90;;;;;;4174063;28;20996;-80
2021/10/18 07:02:13;;;;;;;11.00;6.53;;;8.40;99.90;;;;;;4178233;28;20508;-79
2021/10/18 07:04:18;;;;;;;11.37;6.17;;;8.40;99.90;;;;;;4178837;28;20491;-80
2021/10/18 07:06:20;;;;;;;10.93;5.90;;;8.40;99.90;;;;;;4171677;28;20502;-79
2021/10/18 07:08:22;;;;;;;11.87;6.10;;;8.40;99.90;;;;;;4178821;28;20464;-79
2021/10/18 07:10:24;;;;;;;10.20;6.70;;;8.40;99.90;;;;;;4173951;28;20480;-79
2021/10/18 07:12:25;;;;;;;9.90;5.90;;;8.40;99.90;;;;;;4168764;28;20440;-79
2021/10/18 07:14:27;;;;;;;12.77;6.17;;;8.40;99.90;;;;;;4172278;28;20475;-79
2021/10/18 07:16:29;;;;;;;12.00;6.93;;;8.40;99.90;;;;;;4177375;28;20488;-80
2021/10/18 07:18:30;;;;;;;14.47;6.67;;;8.40;99.90;;;;;;4179332;28;20487;-80
2021/10/18 07:20:34;;;;;;;15.63;7.57;;;8.40;99.90;;;;;;4181306;28;20516;-80
2021/10/18 07:22:42;;;;;;;12.27;6.57;;;8.40;99.90;;;;;;4175972;28;20469;-80
2021/10/18 07:24:43;;;;;;;10.10;6.30;;;8.40;99.90;;;;;;4175817;28;20972;-80
2021/10/18 07:26:47;;;;;;;14.03;6.70;;;8.40;99.90;;;;;;4178075;28;20506;-80
2021/10/18 07:28:50;;;;;;;14.07;6.73;;;8.40;99.90;;;;;;4177545;28;20564;-81
2021/10/18 07:30:52;;;;;;;13.33;6.93;;;8.40;99.90;;;;;;4172298;28;20896;-81
2021/10/18 07:32:55;;;;;;;12.43;6.83;;;8.40;99.90;;;;;;4177506;28;20455;-80
2021/10/18 07:34:58;;;;;;;12.17;7.20;;;8.40;99.90;;;;;;4174765;28;20478;-79
2021/10/18 07:37:01;;;;;;;14.30;7.13;;;8.40;99.90;;;;;;4178029;28;20949;-80
2021/10/18 07:39:05;;;;;;;12.37;7.43;;;8.50;99.90;;;;;;4176842;28;20834;-79
2021/10/18 07:41:08;;;;;;;13.27;6.70;;;8.50;99.90;;;;;;4177355;28;20491;-79
2021/10/18 07:43:10;;;;;;;16.33;6.47;;;8.50;99.90;;;;;;4172797;28;20465;-80
2021/10/18 07:47:15;;;;;;;11.37;6.87;;;8.60;99.90;;;;;;4159204;28;20485;-78
2021/10/18 07:49:17;;;;;;;14.40;7.37;;;8.60;99.90;;;;;;4160829;28;20462;-78
2021/10/18 07:51:18;;;;;;;12.67;6.50;;;8.60;99.90;;;;;;4160491;28;20473;-78
2021/10/18 07:53:22;;;;;;;12.83;7.00;;;8.60;99.90;;;;;;4159872;28;20459;-79
2021/10/18 07:55:28;;;;;;;12.30;6.67;;;8.70;99.90;;;;;;4160668;28;20465;-78
2021/10/18 07:57:30;;;;;;;11.00;6.37;;;8.60;99.90;;;;;;4161942;28;20489;-78
2021/10/18 07:59:31;;;;;;;14.43;6.53;;;8.70;99.90;;;;;;4159864;28;20502;-80
2021/10/18 08:01:33;;;;;;;11.60;6.30;;;8.70;99.90;;;;;;4159365;28;20882;-79
2021/10/18 08:03:35;;;;;;;11.90;6.67;;;8.70;99.90;;;;;;4160398;28;20473;-78
2021/10/18 08:05:36;;;;;;;14.77;6.87;;;8.80;99.90;;;;;;4159933;28;20572;-79
2021/10/18 08:07:40;;;;;;;13.60;7.53;;;8.80;99.90;;;;;;4160074;28;21084;-80
2021/10/18 08:09:43;;;;;;;12.80;6.40;;;8.80;99.90;;;;;;4160934;28;20967;-78
2021/10/18 08:11:45;;;;;;;11.00;6.33;;;8.80;99.90;;;;;;4157043;28;20540;-79
2021/10/18 08:13:47;;;;;;;12.43;6.27;;;8.80;99.90;;;;;;4150064;28;20477;-80
2021/10/18 08:15:48;;;;;;;13.40;6.27;;;8.90;99.90;;;;;;4158540;28;21012;-81
2021/10/18 08:17:51;;;;;;;9.57;5.93;;;8.90;99.90;;;;;;4157707;28;20925;-79
2021/10/18 08:19:52;;;;;;;10.57;5.83;;;8.90;99.90;;;;;;4156044;28;20469;-79
2021/10/18 08:21:54;;;;;;;12.50;5.53;;;8.90;99.90;;;;;;4159576;28;20501;-78
2021/10/18 08:23:56;;;;;;;10.00;5.27;;;9.00;99.90;;;;;;4158403;28;20461;-78
2021/10/18 08:25:59;;;;;;;10.57;5.67;;;9.00;99.90;;;;;;4159319;28;21072;-79
2021/10/18 08:28:01;;;;;;;13.33;5.57;;;9.10;99.90;;;;;;4159662;28;20465;-79
2021/10/18 08:30:03;;;;;;;11.30;5.60;;;9.10;99.90;;;;;;4159784;28;20848;-79
2021/10/18 08:32:05;;;;;;;9.23;5.87;;;9.10;99.90;;;;;;4159217;28;20635;-80
2021/10/18 08:34:07;;;;;;;10.13;5.67;;;9.20;99.90;;;;;;4160012;28;20458;-79
2021/10/18 08:36:08;;;;;;;11.07;5.70;;;9.30;99.90;;;;;;4159530;28;20535;-79
2021/10/18 08:38:19;;;;;;;11.13;5.73;;;9.40;99.90;;;;;;4159968;28;20210;-79
2021/10/18 08:40:20;;;;;;;8.17;5.20;;;9.50;99.90;;;;;;4159448;28;20268;-79
2021/10/18 08:42:26;;;;;;;11.50;5.50;;;9.50;99.90;;;;;;4157659;28;20575;-79
2021/10/18 08:44:28;;;;;;;9.53;5.37;;;9.50;99.90;;;;;;4158224;28;20211;-80
2021/10/18 08:46:30;;;;;;;9.47;5.63;;;9.60;99.90;;;;;;4159244;28;20493;-78
2021/10/18 08:48:32;;;;;;;9.30;5.47;;;9.70;99.90;;;;;;4159290;28;20568;-79
2021/10/18 08:50:34;;;;;;;9.03;4.87;;;9.70;99.90;;;;;;4159036;28;20238;-79
2021/10/18 08:52:36;;;;;;;8.83;5.30;;;9.70;99.90;;;;;;4159493;28;20651;-79
2021/10/18 08:54:38;;;;;;;12.73;5.27;;;9.70;99.90;;;;;;4159673;28;20449;-79
2021/10/18 08:56:40;;;;;;;8.67;5.13;;;9.70;99.90;;;;;;4158996;28;20231;-80
2021/10/18 08:58:43;;;;;;;9.23;5.10;;;9.80;99.90;;;;;;4157120;28;20598;-79
2021/10/18 09:00:48;;;;;;;11.30;5.23;;;9.80;99.90;;;;;;4159046;28;20240;-80
2021/10/18 09:02:49;;;;;;;9.43;5.13;;;9.80;99.90;;;;;;4155810;28;20207;-80
2021/10/18 09:04:51;;;;;;;11.93;5.47;;;9.90;99.90;;;;;;4158747;28;20505;-79
2021/10/18 09:06:55;;;;;;;11.37;4.87;;;9.90;99.90;;;;;;4156858;28;20234;-78
2021/10/18 09:09:03;;;;;;;8.40;5.20;;;10.00;99.90;;;;;;4157047;28;20223;-80
2021/10/18 09:11:08;;;;;;;11.17;5.17;;;10.10;99.90;;;;;;4159063;28;20206;-79
2021/10/18 09:13:12;;;;;;;9.90;5.43;;;10.10;99.90;;;;;;4158683;28;20277;-79
2021/10/18 09:15:21;;;;;;;9.50;4.87;;;10.20;99.90;;;;;;4158852;28;20215;-81
2021/10/18 09:17:33;;;;;;;9.87;5.20;;;10.20;99.90;;;;;;4159054;28;20257;-78
2021/10/18 09:19:35;;;;;;;8.93;4.90;;;10.30;99.90;;;;;;4157865;28;20247;-79
2021/10/18 09:21:39;;;;;;;11.00;5.00;;;10.30;99.90;;;;;;4159364;28;20700;-79
2021/10/18 09:23:41;;;;;;;7.07;4.47;;;10.40;99.90;;;;;;4158855;28;20216;-80
2021/10/18 09:25:42;;;;;;;8.20;4.40;;;10.50;99.90;;;;;;4159007;28;20232;-80
2021/10/18 09:27:44;;;;;;;7.87;4.23;;;10.50;99.90;;;;;;4159052;28;20211;-78
2021/10/18 09:29:47;;;;;;;7.30;4.63;;;10.50;99.90;;;;;;4158930;28;20216;-79
2021/10/18 09:32:01;;;;;;;8.90;4.90;;;10.60;99.90;;;;;;4156002;28;20269;-81
2021/10/18 09:34:08;;;;;;;9.77;4.50;;;10.60;99.90;;;;;;4159235;28;20247;-79
2021/10/18 09:36:13;;;;;;;8.57;4.50;;;10.70;99.90;;;;;;4158699;28;20618;-78
2021/10/18 09:38:17;;;;;;;7.53;4.20;;;10.80;99.90;;;;;;4159100;28;20243;-79
2021/10/18 09:40:31;;;;;;;7.40;4.00;;;10.80;99.90;;;;;;4156383;28;20219;-80
2021/10/18 09:42:33;;;;;;;9.67;4.13;;;10.90;99.90;;;;;;4155467;28;20211;-79
2021/10/18 10:53:00;;;;;;;4.87;3.07;;;13.10;99.90;;;;;;4159051;28;20221;-80
2021/10/18 10:55:19;;;;;;;8.73;3.40;;;13.20;99.90;;;;;;4153464;28;20245;-79
2021/10/18 10:57:31;;;;;;;5.63;3.40;;;13.30;99.90;;;;;;4153811;28;20229;-79
2021/10/18 10:59:35;;;;;;;5.97;3.33;;;13.30;99.90;;;;;;4145688;28;20536;-80
2021/10/18 11:01:52;;;;;;;6.77;3.53;;;13.40;99.90;;;;;;4154615;28;20235;-79
2021/10/18 11:03:54;;;;;;;7.03;3.60;;;13.50;99.90;;;;;;4162846;28;20279;-80
2021/10/18 11:05:56;;;;;;;5.00;3.07;;;13.60;99.90;;;;;;4161581;28;20235;-80
2021/10/18 11:07:59;;;;;;;6.47;3.17;;;13.70;99.90;;;;;;4160800;28;20212;-80
2021/10/18 11:10:02;;;;;;;12.67;3.70;;;13.80;99.90;;;;;;4163042;28;20676;-79
2021/10/18 11:12:04;;;;;;;5.67;3.30;;;13.90;99.90;;;;;;4162863;28;20416;-81
2021/10/18 11:14:06;;;;;;;5.00;2.70;;;14.00;99.70;;;;;;4156324;28;20215;-81
2021/10/18 11:16:08;;;;;;;4.57;2.70;;;14.10;99.80;;;;;;4160457;28;20517;-80
2021/10/18 11:18:09;;;;;;;5.17;3.00;;;14.20;99.90;;;;;;4159051;28;20669;-81
2021/10/18 11:20:13;;;;;;;5.57;2.87;;;14.30;99.90;;;;;;4160982;28;20282;-80
2021/10/18 11:22:26;;;;;;;6.63;3.07;;;14.40;99.90;;;;;;4158368;28;20374;-81
2021/10/18 11:24:40;;;;;;;5.73;3.47;;;14.50;97.90;;;;;;4159222;28;20739;-79
2021/10/18 11:26:48;;;;;;;7.77;3.80;;;14.60;96.10;;;;;;4158514;28;20270;-81
2021/10/18 11:42:10;;;;;;;6.77;3.43;;;17.10;87.00;;;;;;3942540;29;20244;-80
2021/10/18 11:44:12;;;;;;;7.53;3.90;;;17.70;72.00;;;;;;4109516;28;20230;-80
2021/10/18 11:46:14;;;;;;;8.00;4.00;;;18.20;63.20;;;;;;4146021;28;20242;-80
2021/10/18 11:48:17;;;;;;;7.73;3.50;;;18.80;64.30;;;;;;4160261;28;20216;-81
2021/10/18 11:50:24;;;;;;;4.73;3.20;;;19.30;58.00;;;;;;4160645;28;20695;-80
2021/10/18 11:52:25;;;;;;;6.63;3.50;;;19.80;57.90;;;;;;4161105;28;20214;-81
2021/10/18 11:54:27;;;;;;;5.97;3.17;;;20.30;54.20;;;;;;4161537;28;20219;-81
2021/10/18 11:56:29;;;;;;;3.90;2.90;;;20.60;54.80;;;;;;4160896;28;20235;-81
2021/10/18 11:58:34;;;;;;;5.40;2.77;;;20.80;50.90;;;;;;4146636;28;20223;-82
2021/10/18 12:00:42;;;;;;;7.87;2.97;;;21.00;51.20;;;;;;4150625;28;20870;-80
2021/10/18 12:02:45;;;;;;;6.00;3.07;;;21.10;47.90;;;;;;4155643;28;20365;-81